CTSO2: Bird Creek At Catoosa

Data processed at Sat Mar 10 2018 23:31


All information presented herein is the property of the government of the United States of America and may be revised or deleted at any time without prior notice.
Dissemination of this information without the expressed written consent of the Public Affairs Office, Tulsa District U.S. Army Corps of Engineers is strictly prohibited.
These data are gathered electronically and, as presented, have not undergone any form of quality control. These data are not guaranteed to be valid or correct.
Go to home page.
Go to station list.

Upstream stations:

Downstream station:
Previous Day
Next Day
Current Day
    
SHEF ID:       CTSO2     Bird Ck at State Highway 266 nea
STATION TYPE:  

                STAGE  STAGE(2)  RIV-FLOW  WTR-TEMP   DIS-OXY        PH   CONDUCT  BAT-LOAD
                   ft        ft       cfs         F      mg/l        su   umho/cm      volt
              Ccp-Rev   Ccp-Rev   Ccp-Rev   Ccp-Rev   Ccp-Rev   Ccp-Rev   Ccp-Rev   Ccp-Rev
(US/Central)
03/08 00:00      4.77      4.64       392     53.42     10.04      7.87       520     12.65
03/08 01:00      4.73      4.64       376     53.28     10.03      7.88       522     12.65
03/08 02:00      4.71      4.63       369     53.10     10.00      7.88       510     12.65
03/08 03:00      4.74      4.63       380     52.86      9.93      7.88       503     12.57
03/08 04:00      4.72      4.61       373     52.59      9.87      7.86       503     12.57
03/08 05:00      4.68      4.59       357     52.30      9.76      7.85       506     12.57
03/08 06:00      4.65      4.56       346     52.02      9.66      7.83       508     12.57
03/08 07:00      4.65      4.57       346     51.75      9.57      7.82       509     12.57
03/08 08:00      4.65      4.56       346     51.60      9.50      7.81       509     13.29
03/08 09:00      4.62      4.57       335     51.60      9.51      7.80       509     13.76
03/08 10:00      4.59      4.56       325     51.75      9.97      7.63       507     13.92
03/08 11:00      4.65      4.55       346     52.00     10.05      7.73       501     13.92
03/08 12:00      4.67      4.57       354     52.16     10.12      7.76       482     13.84
03/08 13:00      4.67      4.59       354     52.29     10.18      7.78       502     13.84
03/08 14:00      4.69      4.60       361     52.43     10.25      7.80       496     13.68
03/08 15:00      4.69      4.60       361     52.52     10.31      7.82       485     12.97
03/08 16:00      4.65      4.59       346     52.61     10.34      7.83       512     12.97
03/08 17:00      4.64      4.58       343     52.66     10.39      7.84       511     12.89
03/08 18:00      4.66      4.57       350     52.66     10.45      7.84       493     12.89
03/08 19:00      4.65      4.57       346     52.70     10.50      7.84       486     12.81
03/08 20:00      4.61      4.56       332     52.79     10.58      7.85       469     12.81
03/08 21:00      4.63      4.56       339     52.93     10.68      7.87       488     12.81
03/08 22:00      4.62      4.56       335     53.13     10.77      7.88       498     12.73
03/08 23:00      4.65      4.56       346     53.33     10.87      7.88       498     12.73